DLH2PP EDDM-EPKK
Flight info
| Callsign | DLH2PP |
|---|---|
| Flight time | N/A |
| Altitude | 30000 |
| Route | BIBAG3S/26L BIBAG Y133 BEPAS DCT NELPA/N0441F310 DCT PADKA |
| Aircraft | A320/M-SDE3FGHIRWY/LB1 |
Departure
| Time | N/A |
|---|---|
| Airport | Munich Airport (EDDM) |
Arrival
| Time | 2026-05-04 08:06 |
|---|---|
| Airport | Kraków John Paul II International Airport (EPKK) |
| Time | Latitude | Longitude | Altitude | Speed | Heading |
|---|---|---|---|---|---|
| 2026-05-04 07:28 | 49.25497 | 14.85298 | 31009 ft | 461 kts | 68° |
| 2026-05-04 07:28 | 49.27853 | 14.94450 | 31009 ft | 461 kts | 69° |
| 2026-05-04 07:29 | 49.30006 | 15.03702 | 31001 ft | 461 kts | 72° |
| 2026-05-04 07:29 | 49.31926 | 15.13071 | 31012 ft | 461 kts | 73° |
| 2026-05-04 07:30 | 49.33810 | 15.22398 | 31014 ft | 461 kts | 72° |
| 2026-05-04 07:30 | 49.35762 | 15.31769 | 31013 ft | 460 kts | 72° |
| 2026-05-04 07:31 | 49.37740 | 15.41129 | 31023 ft | 460 kts | 72° |
| 2026-05-04 07:33 | 49.45461 | 15.78501 | 31027 ft | 460 kts | 72° |
| 2026-05-04 07:33 | 49.47386 | 15.87897 | 31027 ft | 460 kts | 72° |
| 2026-05-04 07:34 | 49.49298 | 15.97293 | 31025 ft | 459 kts | 72° |
| 2026-05-04 07:34 | 49.51195 | 16.06701 | 31028 ft | 459 kts | 72° |
| 2026-05-04 07:35 | 49.53070 | 16.16035 | 31028 ft | 459 kts | 73° |
| 2026-05-04 07:35 | 49.54959 | 16.25458 | 31019 ft | 460 kts | 73° |
| 2026-05-04 07:36 | 49.56835 | 16.34867 | 31021 ft | 460 kts | 73° |
| 2026-05-04 07:38 | 49.64254 | 16.72558 | 31036 ft | 459 kts | 73° |
| 2026-05-04 07:38 | 49.66088 | 16.82006 | 31056 ft | 459 kts | 73° |
| 2026-05-04 07:39 | 49.67920 | 16.91449 | 31042 ft | 459 kts | 72° |
| 2026-05-04 07:39 | 49.69730 | 17.00854 | 31058 ft | 459 kts | 73° |
| 2026-05-04 07:40 | 49.71546 | 17.10317 | 31059 ft | 459 kts | 73° |
| 2026-05-04 07:40 | 49.73349 | 17.19780 | 31060 ft | 458 kts | 73° |
| 2026-05-04 07:41 | 49.75141 | 17.29244 | 31058 ft | 458 kts | 73° |
| 2026-05-04 07:41 | 49.76917 | 17.38651 | 31051 ft | 458 kts | 73° |
| 2026-05-04 07:42 | 49.78697 | 17.48122 | 31051 ft | 458 kts | 73° |
| 2026-05-04 07:42 | 49.80462 | 17.57583 | 31056 ft | 457 kts | 73° |
| 2026-05-04 07:43 | 49.82218 | 17.67054 | 31052 ft | 457 kts | 73° |
| 2026-05-04 07:43 | 49.83969 | 17.76527 | 31056 ft | 456 kts | 73° |
| 2026-05-04 07:44 | 49.85703 | 17.85924 | 31050 ft | 456 kts | 73° |
| 2026-05-04 07:44 | 49.87438 | 17.95388 | 31043 ft | 456 kts | 73° |
| 2026-05-04 07:45 | 49.88875 | 18.03259 | 31045 ft | 456 kts | 73° |
| 2026-05-04 07:45 | 49.90592 | 18.12732 | 31065 ft | 456 kts | 73° |
| 2026-05-04 07:46 | 49.92295 | 18.22222 | 31047 ft | 456 kts | 73° |
| 2026-05-04 07:46 | 49.93271 | 18.32003 | 31051 ft | 465 kts | 90° |
| 2026-05-04 07:47 | 49.92979 | 18.42129 | 31049 ft | 472 kts | 92° |
| 2026-05-04 07:49 | 49.91687 | 18.81934 | 26485 ft | 448 kts | 94° |
| 2026-05-04 07:49 | 49.91459 | 18.86740 | 25866 ft | 444 kts | 95° |
| 2026-05-04 07:49 | 49.91191 | 18.91408 | 25638 ft | 431 kts | 95° |
| 2026-05-04 07:50 | 49.90908 | 18.95973 | 25518 ft | 416 kts | 95° |
| 2026-05-04 07:50 | 49.90633 | 19.00376 | 25390 ft | 403 kts | 95° |
| 2026-05-04 07:50 | 49.90374 | 19.04652 | 25269 ft | 391 kts | 95° |
| 2026-05-04 07:50 | 49.90134 | 19.08754 | 25144 ft | 380 kts | 95° |
| 2026-05-04 07:51 | 49.89903 | 19.12797 | 24840 ft | 374 kts | 95° |
| 2026-05-04 07:51 | 49.89673 | 19.16797 | 24454 ft | 370 kts | 95° |
| 2026-05-04 07:51 | 49.89441 | 19.20768 | 24091 ft | 367 kts | 95° |
| 2026-05-04 07:51 | 49.89239 | 19.24706 | 23645 ft | 366 kts | 91° |
| 2026-05-04 07:52 | 49.89465 | 19.28618 | 23175 ft | 364 kts | 78° |
| 2026-05-04 07:52 | 49.90228 | 19.32337 | 22731 ft | 361 kts | 66° |
| 2026-05-04 07:52 | 49.91232 | 19.35908 | 22194 ft | 362 kts | 66° |
| 2026-05-04 07:52 | 49.92232 | 19.39480 | 21790 ft | 359 kts | 66° |
| 2026-05-04 07:53 | 49.93221 | 19.43026 | 21377 ft | 357 kts | 66° |
| 2026-05-04 07:54 | 49.97428 | 19.68007 | 17310 ft | 333 kts | 79° |
| 2026-05-04 07:55 | 49.97899 | 19.71510 | 16676 ft | 330 kts | 79° |
| 2026-05-04 07:55 | 49.98369 | 19.74984 | 16044 ft | 327 kts | 79° |
| 2026-05-04 07:55 | 49.98837 | 19.78436 | 15423 ft | 325 kts | 79° |
| 2026-05-04 07:55 | 49.99302 | 19.81853 | 14808 ft | 322 kts | 79° |
| 2026-05-04 07:56 | 49.99764 | 19.85246 | 14227 ft | 320 kts | 79° |
| 2026-05-04 07:56 | 50.00221 | 19.88624 | 13624 ft | 318 kts | 79° |
| 2026-05-04 07:56 | 50.00670 | 19.91963 | 13115 ft | 310 kts | 79° |
| 2026-05-04 07:56 | 50.01099 | 19.95147 | 12977 ft | 291 kts | 79° |
| 2026-05-04 07:57 | 50.01502 | 19.98126 | 12671 ft | 281 kts | 79° |
| 2026-05-04 07:57 | 50.01899 | 20.01079 | 12210 ft | 276 kts | 79° |
| 2026-05-04 07:57 | 50.02291 | 20.03988 | 11716 ft | 274 kts | 79° |
| 2026-05-04 07:57 | 50.02680 | 20.06871 | 11221 ft | 271 kts | 79° |
| 2026-05-04 07:58 | 50.03068 | 20.09736 | 10722 ft | 269 kts | 79° |
| 2026-05-04 07:58 | 50.03453 | 20.12582 | 10229 ft | 267 kts | 79° |
| 2026-05-04 07:58 | 50.03835 | 20.15399 | 9717 ft | 265 kts | 79° |
| 2026-05-04 07:58 | 50.04216 | 20.18210 | 9132 ft | 265 kts | 79° |
| 2026-05-04 07:59 | 50.04736 | 20.20933 | 8578 ft | 262 kts | 59° |
| 2026-05-04 07:59 | 50.05969 | 20.22936 | 8015 ft | 257 kts | 27° |
| 2026-05-04 07:59 | 50.07631 | 20.23648 | 7451 ft | 250 kts | 355° |
| 2026-05-04 07:59 | 50.09341 | 20.23231 | 6975 ft | 250 kts | 346° |
| 2026-05-04 08:00 | 50.11032 | 20.22614 | 6626 ft | 248 kts | 336° |
| 2026-05-04 08:00 | 50.12398 | 20.21124 | 6287 ft | 239 kts | 304° |
| 2026-05-04 08:00 | 50.13077 | 20.18832 | 5927 ft | 231 kts | 276° |
| 2026-05-04 08:02 | 50.11075 | 20.02409 | 4007 ft | 204 kts | 256° |
| 2026-05-04 08:02 | 50.10793 | 20.00336 | 3902 ft | 185 kts | 255° |
| 2026-05-04 08:02 | 50.10543 | 19.98484 | 3772 ft | 165 kts | 255° |
| 2026-05-04 08:03 | 50.10323 | 19.96859 | 3600 ft | 146 kts | 254° |
| 2026-05-04 08:03 | 50.10114 | 19.95359 | 3370 ft | 138 kts | 252° |
| 2026-05-04 08:03 | 50.09909 | 19.93956 | 3112 ft | 132 kts | 252° |
| 2026-05-04 08:03 | 50.09708 | 19.92506 | 2850 ft | 139 kts | 254° |
| 2026-05-04 08:04 | 50.09500 | 19.91033 | 2608 ft | 139 kts | 253° |
| 2026-05-04 08:04 | 50.09296 | 19.89551 | 2361 ft | 140 kts | 254° |
| 2026-05-04 08:04 | 50.09102 | 19.88067 | 2108 ft | 138 kts | 255° |
| 2026-05-04 08:04 | 50.08883 | 19.86588 | 1810 ft | 142 kts | 255° |
| 2026-05-04 08:05 | 50.08684 | 19.85104 | 1597 ft | 143 kts | 258° |
| 2026-05-04 08:05 | 50.08481 | 19.83583 | 1366 ft | 144 kts | 256° |
| 2026-05-04 08:05 | 50.08267 | 19.82051 | 1119 ft | 144 kts | 256° |
| 2026-05-04 08:05 | 50.08058 | 19.80528 | 913 ft | 144 kts | 256° |
| 2026-05-04 08:06 | 50.07852 | 19.79045 | 802 ft | 128 kts | 257° |
| 2026-05-04 08:06 | 50.07698 | 19.77947 | 798 ft | 79 kts | 258° |
| 2026-05-04 08:06 | 50.07611 | 19.77336 | 800 ft | 48 kts | 257° |
| 2026-05-04 08:06 | 50.07562 | 19.76970 | 802 ft | 17 kts | 262° |
| 2026-05-04 08:08 | 50.07382 | 19.77496 | 800 ft | 17 kts | 78° |
| 2026-05-04 08:08 | 50.07409 | 19.77699 | 800 ft | 21 kts | 78° |
| 2026-05-04 08:10 | 50.07674 | 19.79602 | 800 ft | 22 kts | 77° |
| 2026-05-04 08:11 | 50.07702 | 19.79811 | 800 ft | 16 kts | 78° |
| 2026-05-04 08:11 | 50.07631 | 19.79892 | 800 ft | 7 kts | 170° |
| 2026-05-04 08:11 | 50.07573 | 19.79911 | 800 ft | 11 kts | 167° |
| 2026-05-04 08:12 | 50.07489 | 19.79940 | 800 ft | 13 kts | 168° |
| 2026-05-04 08:12 | 50.07402 | 19.79973 | 800 ft | 13 kts | 162° |
| 2026-05-04 08:12 | 50.07326 | 19.79999 | 800 ft | 8 kts | 168° |
| 2026-05-04 08:12 | 50.07304 | 19.80007 | 800 ft | 0 kts | 168° |